Time;durP1;ratioP1;P1;durP2;ratioP2;P2;SDS_P1;SDS_P2;PMS_P1;PMS_P2;Temp;Humidity;BMP_temperature;BMP_pressure;BME280_temperature;BME280_humidity;BME280_pressure;Samples;Min_cycle;Max_cycle;Signal;HPM_P1;HPM_P2
2022/06/01 00:01:23;;;;;;;;;2.00;2.00;;;;;16.80;39.28;100935.91;5113087;27;45436;-59
2022/06/01 00:03:49;;;;;;;;;4.50;3.00;;;;;16.78;39.07;100932.47;5119699;27;45476;-59
2022/06/01 00:06:14;;;;;;;;;4.00;2.00;;;;;16.78;39.60;100931.63;5115696;27;45434;-59
2022/06/01 00:08:40;;;;;;;;;1.00;1.00;;;;;16.75;38.84;100930.00;5099879;27;45237;-59
2022/06/01 00:11:07;;;;;;;;;2.00;2.00;;;;;16.73;38.97;100929.19;5112630;27;45205;-59
2022/06/01 00:13:32;;;;;;;;;3.25;2.00;;;;;16.72;38.92;100931.94;5117054;27;46413;-60
2022/06/01 00:15:58;;;;;;;;;3.25;3.00;;;;;16.64;39.36;100925.25;5116068;27;45367;-60
2022/06/01 00:18:23;;;;;;;;;1.25;1.25;;;;;16.60;39.81;100934.22;5116901;27;59731;-60
2022/06/01 00:20:50;;;;;;;;;2.00;2.00;;;;;16.59;39.62;100937.81;5097456;27;45688;-60
2022/06/01 00:23:15;;;;;;;;;2.00;2.00;;;;;16.57;39.39;100934.38;5117679;27;46697;-59
2022/06/01 00:25:42;;;;;;;;;3.50;3.00;;;;;16.55;39.36;100930.09;5112077;27;45473;-59
2022/06/01 00:28:07;;;;;;;;;3.50;2.00;;;;;16.50;39.72;100933.84;5116703;27;45533;-59
2022/06/01 00:30:33;;;;;;;;;1.00;1.00;;;;;16.50;39.63;100938.25;5109349;27;45691;-60
2022/06/01 00:32:58;;;;;;;;;4.75;3.00;;;;;16.48;40.04;100948.91;5112090;27;46202;-60
2022/06/01 00:35:24;;;;;;;;;3.00;3.00;;;;;16.47;39.74;100939.25;5105237;27;66944;-59
2022/06/01 00:37:50;;;;;;;;;4.75;2.25;;;;;16.45;39.99;100941.13;5115939;27;46045;-60
2022/06/01 00:40:17;;;;;;;;;4.00;4.00;;;;;16.44;40.41;100941.19;5111170;27;45532;-60
2022/06/01 00:42:45;;;;;;;;;4.00;3.50;;;;;16.42;39.44;100943.06;5116943;27;46180;-60
2022/06/01 00:45:13;;;;;;;;;2.50;2.00;;;;;16.39;40.13;100935.28;5111884;27;45311;-60
2022/06/01 00:47:38;;;;;;;;;3.25;3.00;;;;;16.35;40.14;100936.38;5100966;27;45336;-61
2022/06/01 00:50:11;;;;;;;;;2.00;2.00;;;;;16.32;40.76;100927.66;5119644;27;45512;-61
2022/06/01 00:52:45;;;;;;;;;2.75;2.00;;;;;16.31;39.90;100933.88;5096946;27;45402;-61
2022/06/01 00:55:20;;;;;;;;;3.00;1.25;;;;;16.27;39.95;100942.00;5109016;27;46171;-61
2022/06/01 00:57:48;;;;;;;;;3.00;3.00;;;;;16.25;40.65;100936.78;5092249;27;45541;-61
2022/06/01 01:00:20;;;;;;;;;4.00;2.75;;;;;16.23;40.71;100938.63;5086865;27;46186;-60
2022/06/01 01:02:46;;;;;;;;;2.25;2.25;;;;;16.20;40.74;100933.53;5119503;27;46129;-59
2022/06/01 01:05:13;;;;;;;;;2.50;2.25;;;;;16.21;40.73;100932.59;5121770;27;45322;-60
2022/06/01 01:07:40;;;;;;;;;5.50;2.00;;;;;16.18;40.90;100935.34;5101493;27;45738;-60
2022/06/01 01:10:07;;;;;;;;;4.00;2.25;;;;;16.16;41.06;100939.00;5095261;27;45433;-60
2022/06/01 01:12:56;;;;;;;;;2.00;2.00;;;;;16.11;41.15;100931.28;5106556;27;46483;-60
2022/06/01 01:15:19;;;;;;;;;5.00;3.00;;;;;16.10;41.35;100934.88;5109148;27;45850;-61
2022/06/01 01:17:45;;;;;;;;;3.50;3.50;;;;;16.11;41.06;100926.91;5103438;27;45532;-60
2022/06/01 01:20:11;;;;;;;;;2.00;2.00;;;;;16.10;41.47;100925.16;5091355;27;45589;-60
2022/06/01 01:22:41;;;;;;;;;5.00;3.00;;;;;16.09;41.11;100931.38;5092934;27;46033;-60
2022/06/01 01:25:18;;;;;;;;;4.25;3.00;;;;;16.10;41.39;100917.25;5097397;27;45762;-60
2022/06/01 01:27:51;;;;;;;;;4.00;2.00;;;;;16.09;41.42;100915.53;5108362;27;45528;-61
2022/06/01 01:30:25;;;;;;;;;4.00;2.25;;;;;16.15;41.12;100919.69;5106259;27;47150;-61
2022/06/01 01:32:51;;;;;;;;;3.25;2.00;;;;;16.17;41.40;100925.75;5112649;27;46134;-60
2022/06/01 01:35:17;;;;;;;;;1.75;1.50;;;;;16.18;41.10;100923.94;5108025;27;45394;-60
2022/06/01 01:37:43;;;;;;;;;2.50;2.00;;;;;16.18;41.52;100932.72;5120694;27;45289;-59
2022/06/01 01:40:09;;;;;;;;;2.00;2.00;;;;;16.17;41.73;100923.09;5102294;27;45470;-60
2022/06/01 01:42:34;;;;;;;;;2.25;2.25;;;;;16.16;41.91;100929.31;5117374;27;45504;-60
2022/06/01 01:45:26;;;;;;;;;3.50;2.25;;;;;16.14;41.71;100939.94;5117837;27;68431;-61
2022/06/01 01:47:52;;;;;;;;;3.00;3.00;;;;;16.14;41.63;100934.66;5116632;27;46865;-61
2022/06/01 01:50:18;;;;;;;;;4.00;2.00;;;;;16.16;41.65;100933.72;5116664;27;45403;-60
2022/06/01 01:52:44;;;;;;;;;3.25;2.00;;;;;16.16;41.30;100925.81;5106305;27;45440;-60
2022/06/01 01:55:27;;;;;;;;;2.75;1.75;;;;;16.05;41.40;100919.25;5106946;27;45427;-60
2022/06/01 01:57:56;;;;;;;;;7.00;3.00;;;;;16.18;41.54;100932.72;5100401;27;45269;-60
2022/06/01 02:00:24;;;;;;;;;1.25;1.25;;;;;16.18;41.65;100931.88;5113839;27;45441;-60
2022/06/01 02:03:11;;;;;;;;;2.00;2.00;;;;;16.16;41.64;100928.44;5106011;27;46134;-59
2022/06/01 02:08:38;;;;;;;;;3.75;2.50;;;;;16.10;41.66;100916.41;5120356;27;45402;-60
2022/06/01 02:14:35;;;;;;;;;3.75;3.00;;;;;16.05;41.94;100918.41;5100907;27;45740;-60
2022/06/01 02:17:04;;;;;;;;;5.00;4.00;;;;;16.03;41.82;100912.34;5072695;27;45490;-60
2022/06/01 02:19:42;;;;;;;;;4.75;3.50;;;;;16.00;41.99;100915.97;5113552;27;45523;-60
2022/06/01 02:22:08;;;;;;;;;4.75;3.25;;;;;15.99;42.35;100913.41;5095309;27;45606;-60
2022/06/01 02:24:34;;;;;;;;;4.00;4.00;;;;;15.97;41.95;100902.94;5116415;27;45515;-59
2022/06/01 02:26:59;;;;;;;;;6.00;3.00;;;;;15.96;41.93;100905.63;5109720;27;64613;-60
2022/06/01 02:29:36;;;;;;;;;4.00;3.50;;;;;15.91;41.80;100903.22;5092686;27;64652;-60
2022/06/01 02:32:03;;;;;;;;;5.00;3.50;;;;;15.88;42.19;100905.97;5112788;27;45672;-59
2022/06/01 02:34:29;;;;;;;;;5.00;3.00;;;;;15.85;42.28;100896.44;5099269;27;45363;-59
2022/06/01 02:36:56;;;;;;;;;5.00;3.00;;;;;15.83;42.57;100905.31;5117356;27;45304;-60
2022/06/01 02:39:21;;;;;;;;;4.25;4.00;;;;;15.82;42.68;100906.28;5097223;27;45292;-59
2022/06/01 02:44:30;;;;;;;;;3.50;3.00;;;;;15.77;42.72;100908.28;5105259;27;45438;-59
2022/06/01 02:46:57;;;;;;;;;4.25;4.25;;;;;15.76;42.66;100902.16;5114702;27;66676;-59
2022/06/01 02:49:22;;;;;;;;;4.25;4.00;;;;;15.75;43.00;100903.06;5086127;27;45296;-59
2022/06/01 02:51:48;;;;;;;;;4.75;4.00;;;;;15.73;42.85;100897.81;5095895;27;45534;-59
2022/06/01 02:54:13;;;;;;;;;5.00;4.00;;;;;15.74;43.16;100893.38;5114207;27;45326;-59
2022/06/01 02:56:39;;;;;;;;;6.00;4.00;;;;;15.74;42.97;100893.38;5116032;27;56383;-59
2022/06/01 02:59:05;;;;;;;;;5.75;4.75;;;;;15.68;43.09;100891.88;5119566;27;45299;-59
2022/06/01 03:01:31;;;;;;;;;6.00;4.50;;;;;15.72;42.94;100895.25;5098987;27;45361;-59
2022/06/01 03:03:57;;;;;;;;;5.25;4.00;;;;;15.71;42.79;100899.66;5116379;27;46365;-59
2022/06/01 03:06:23;;;;;;;;;9.00;4.00;;;;;15.70;42.41;100892.66;5102841;27;45389;-59
2022/06/01 03:08:48;;;;;;;;;5.75;4.00;;;;;15.67;43.29;100890.19;5112354;27;45244;-59
2022/06/01 03:11:13;;;;;;;;;5.75;5.50;;;;;15.67;43.36;100889.31;5108458;27;65094;-59
2022/06/01 03:13:39;;;;;;;;;4.00;4.00;;;;;15.61;42.87;100890.47;5115984;27;48468;-59
2022/06/01 03:16:04;;;;;;;;;4.50;4.00;;;;;15.54;43.64;100886.38;5105724;27;45483;-59
2022/06/01 03:18:31;;;;;;;;;5.00;5.00;;;;;15.55;43.42;100898.66;5105739;27;46449;-59
2022/06/01 03:20:57;;;;;;;;;6.75;5.00;;;;;15.49;43.93;100894.53;5106492;27;45495;-60
2022/06/01 03:23:23;;;;;;;;;7.75;5.00;;;;;15.49;43.89;100905.06;5117037;27;47066;-60
2022/06/01 03:25:48;;;;;;;;;0.75;0.00;;;;;15.49;43.76;100906.84;5117746;27;67945;-60
2022/06/01 03:28:13;;;;;;;;;4.00;4.00;;;;;15.46;44.25;100909.63;5111222;27;52321;-60
2022/06/01 03:30:39;;;;;;;;;7.25;4.25;;;;;15.45;43.86;100906.13;5104579;27;58280;-60
2022/06/01 03:33:05;;;;;;;;;5.75;4.00;;;;;15.44;44.24;100901.78;5107337;27;46247;-60
2022/06/01 03:35:32;;;;;;;;;6.75;6.00;;;;;15.44;44.16;100908.81;5107429;27;46166;-60
2022/06/01 03:37:58;;;;;;;;;9.50;5.25;;;;;15.42;43.88;100913.31;5112461;27;45556;-59
2022/06/01 03:40:24;;;;;;;;;7.25;5.00;;;;;15.38;44.55;100908.16;5103999;27;45356;-60
2022/06/01 03:42:49;;;;;;;;;5.50;5.00;;;;;15.37;44.54;100909.09;5116759;27;45344;-60
2022/06/01 03:47:58;;;;;;;;;7.75;5.00;;;;;15.30;44.47;100912.09;5114174;27;45612;-59
2022/06/01 03:50:25;;;;;;;;;4.25;3.75;;;;;15.29;44.61;100918.28;5106011;27;60182;-59
2022/06/01 03:52:52;;;;;;;;;7.00;4.75;;;;;15.29;44.66;100913.84;5111089;27;46426;-59
2022/06/01 03:55:17;;;;;;;;;5.00;5.00;;;;;15.30;44.91;100909.47;5111683;27;45428;-59
2022/06/01 03:57:43;;;;;;;;;6.50;5.00;;;;;15.29;44.56;100918.28;5111770;27;45277;-59
2022/06/01 04:00:12;;;;;;;;;6.75;5.75;;;;;15.30;44.95;100920.00;5117219;27;45528;-59
2022/06/01 04:02:38;;;;;;;;;8.50;6.00;;;;;15.30;44.90;100920.00;5119203;27;46269;-59
2022/06/01 04:05:04;;;;;;;;;7.25;4.50;;;;;15.30;44.90;100925.28;5121894;27;45674;-59
2022/06/01 04:07:29;;;;;;;;;4.50;4.00;;;;;15.28;44.88;100927.09;5112143;27;45271;-59
2022/06/01 04:09:54;;;;;;;;;5.00;4.00;;;;;15.27;45.13;100931.53;5119021;27;64102;-59
2022/06/01 04:12:20;;;;;;;;;6.25;5.00;;;;;15.25;44.79;100920.19;5109813;27;68834;-59
2022/06/01 04:14:45;;;;;;;;;5.25;5.00;;;;;15.30;44.65;100926.13;5119427;27;65549;-59
2022/06/01 04:17:11;;;;;;;;;6.00;6.00;;;;;15.33;44.90;100930.41;5118537;27;45374;-60
2022/06/01 04:19:36;;;;;;;;;4.00;2.50;;;;;15.34;44.93;100927.69;5113656;27;58872;-59
2022/06/01 04:22:02;;;;;;;;;6.00;4.75;;;;;15.33;44.33;100925.13;5108017;27;66465;-60
2022/06/01 04:24:29;;;;;;;;;6.00;5.00;;;;;15.37;44.86;100932.84;5090711;27;45296;-59
2022/06/01 04:26:54;;;;;;;;;6.25;3.75;;;;;15.41;44.01;100938.84;5119887;27;45542;-59
2022/06/01 04:29:20;;;;;;;;;6.50;4.25;;;;;15.43;44.48;100941.41;5116447;27;61640;-60
2022/06/01 04:31:46;;;;;;;;;7.25;7.00;;;;;15.46;43.93;100941.28;5118876;27;45915;-60
2022/06/01 04:34:12;;;;;;;;;7.50;5.00;;;;;15.44;44.59;100943.09;5108548;27;62914;-59
2022/06/01 04:36:38;;;;;;;;;8.75;6.00;;;;;15.45;44.90;100942.19;5110062;27;45456;-59
2022/06/01 04:39:04;;;;;;;;;9.75;7.75;;;;;15.50;44.89;100953.41;5117222;27;45511;-59
2022/06/01 04:41:31;;;;;;;;;9.50;7.25;;;;;15.50;45.01;100950.75;5112048;27;46228;-59
2022/06/01 04:43:56;;;;;;;;;8.25;8.00;;;;;15.49;44.84;100949.91;5084004;27;45934;-59
2022/06/01 04:46:21;;;;;;;;;8.50;6.50;;;;;15.50;45.31;100954.25;5114571;27;62420;-59
2022/06/01 04:48:46;;;;;;;;;7.00;7.00;;;;;15.49;44.90;100960.47;5111245;27;63945;-59
2022/06/01 04:51:12;;;;;;;;;10.00;7.75;;;;;15.48;44.83;100958.75;5117910;27;63627;-59
2022/06/01 04:53:37;;;;;;;;;8.50;7.50;;;;;15.47;44.99;100956.16;5116885;27;54013;-59
2022/06/01 04:56:03;;;;;;;;;8.50;7.50;;;;;15.47;45.18;100958.81;5091259;27;45528;-59
2022/06/01 04:58:28;;;;;;;;;8.00;7.75;;;;;15.50;44.66;100963.94;5108365;27;45524;-59
2022/06/01 05:00:53;;;;;;;;;7.75;7.00;;;;;15.51;45.14;100968.28;5116026;27;68162;-59
2022/06/01 05:03:19;;;;;;;;;9.50;6.00;;;;;15.53;44.92;100971.75;5111481;27;61935;-59
2022/06/01 05:05:44;;;;;;;;;7.25;6.00;;;;;15.54;45.25;100971.66;5104715;27;45545;-59
2022/06/01 05:08:12;;;;;;;;;9.75;8.00;;;;;15.57;44.98;100971.53;5111009;27;45560;-60
2022/06/01 05:10:38;;;;;;;;;8.00;8.00;;;;;15.61;44.64;100976.66;5115013;27;46447;-59
2022/06/01 05:13:04;;;;;;;;;6.00;6.00;;;;;15.62;44.91;100984.50;5114311;27;45296;-59
2022/06/01 05:15:29;;;;;;;;;8.00;7.75;;;;;15.67;44.65;100984.28;5119229;27;45351;-61
2022/06/01 05:17:55;;;;;;;;;10.75;6.00;;;;;15.67;44.72;100986.94;5115527;27;66845;-58
2022/06/01 05:20:20;;;;;;;;;7.00;7.00;;;;;15.68;44.46;100984.22;5101039;27;59959;-58
2022/06/01 05:22:45;;;;;;;;;6.25;5.75;;;;;15.72;44.86;100983.19;5102347;27;63585;-58
2022/06/01 05:25:11;;;;;;;;;8.00;6.00;;;;;15.77;45.03;100984.78;5113099;27;61200;-59
2022/06/01 05:27:36;;;;;;;;;7.50;7.50;;;;;15.82;44.97;100973.09;5110007;27;65381;-58
2022/06/01 05:30:03;;;;;;;;;6.25;6.25;;;;;15.85;44.51;100972.97;5108617;27;45688;-58
2022/06/01 05:32:28;;;;;;;;;10.00;7.25;;;;;15.90;44.76;100975.38;5095248;27;45452;-58
2022/06/01 05:34:53;;;;;;;;;6.75;5.00;;;;;15.99;44.66;100979.38;5105890;27;62609;-59
2022/06/01 05:37:19;;;;;;;;;4.50;4.00;;;;;16.03;44.36;100980.97;5110649;27;45576;-59
2022/06/01 05:39:44;;;;;;;;;6.75;6.00;;;;;16.06;44.37;100980.81;5093280;27;47190;-59
2022/06/01 05:42:11;;;;;;;;;7.00;5.25;;;;;16.10;44.57;100977.13;5115338;27;45345;-59
2022/06/01 05:44:36;;;;;;;;;7.75;4.75;;;;;16.15;44.41;100980.41;5108612;27;45382;-59
2022/06/01 05:47:03;;;;;;;;;3.00;3.00;;;;;16.16;44.01;100971.53;5109605;27;45484;-59
2022/06/01 05:49:29;;;;;;;;;4.00;4.00;;;;;16.20;44.21;100967.84;5113519;27;46517;-59
2022/06/01 05:51:56;;;;;;;;;6.25;5.00;;;;;16.24;44.48;100960.66;5105688;27;45341;-59
2022/06/01 05:54:22;;;;;;;;;5.75;2.00;;;;;16.27;43.82;100974.56;5112549;27;45500;-59
2022/06/01 05:56:47;;;;;;;;;4.50;4.50;;;;;16.32;44.37;100979.59;5104942;27;64907;-59
2022/06/01 05:59:14;;;;;;;;;6.00;5.00;;;;;16.37;44.02;100976.75;5110947;27;46966;-58
2022/06/01 06:01:39;;;;;;;;;4.75;3.00;;;;;16.38;44.24;100979.34;5104580;27;45492;-59
2022/06/01 06:04:05;;;;;;;;;7.50;4.50;;;;;16.41;43.84;100983.59;5112266;27;45281;-58
2022/06/01 06:06:31;;;;;;;;;7.75;6.00;;;;;16.41;43.84;100988.88;5109628;27;45487;-58
2022/06/01 06:09:02;;;;;;;;;6.00;4.75;;;;;16.46;43.99;100990.38;5110563;27;45554;-58
2022/06/01 06:11:30;;;;;;;;;5.00;4.00;;;;;16.49;43.61;100984.09;5102803;27;45450;-58
2022/06/01 06:13:58;;;;;;;;;3.25;2.00;;;;;16.51;43.67;100982.25;5116343;27;45436;-58
2022/06/01 06:16:24;;;;;;;;;2.75;2.00;;;;;16.53;43.16;100983.00;5113203;27;45537;-57
2022/06/01 06:18:50;;;;;;;;;4.25;3.00;;;;;16.57;43.09;100989.00;5113222;27;45572;-58
2022/06/01 06:21:17;;;;;;;;;3.75;2.50;;;;;16.59;43.19;100984.50;5118832;27;45316;-57
2022/06/01 06:23:42;;;;;;;;;2.25;1.50;;;;;16.60;42.57;100975.66;5110284;27;45303;-57
2022/06/01 06:26:08;;;;;;;;;1.25;1.00;;;;;16.59;42.78;100982.75;5114357;27;45200;-58
2022/06/01 06:28:34;;;;;;;;;1.75;1.75;;;;;16.55;42.79;100978.50;5091495;27;46597;-59
2022/06/01 06:30:59;;;;;;;;;3.50;3.00;;;;;16.60;42.57;100986.22;5108629;27;45518;-59
2022/06/01 06:33:25;;;;;;;;;7.00;7.00;;;;;16.62;42.66;100984.38;5111514;27;45358;-59
2022/06/01 06:36:04;;;;;;;;;4.25;3.25;;;;;16.59;42.45;100981.84;5086649;27;45331;-60
2022/06/01 06:38:32;;;;;;;;;3.75;2.50;;;;;16.62;42.29;100984.38;5114477;27;45488;-62
2022/06/01 06:40:59;;;;;;;;;2.75;2.75;;;;;16.63;42.41;100997.50;5107282;27;45471;-60
2022/06/01 06:43:27;;;;;;;;;3.00;1.75;;;;;16.66;42.36;100991.19;5108181;27;45519;-59
2022/06/01 06:45:57;;;;;;;;;1.00;1.00;;;;;16.70;42.26;100996.28;5107082;27;45376;-59
2022/06/01 06:48:23;;;;;;;;;3.00;2.00;;;;;16.75;42.30;100996.06;5116199;27;45290;-59
2022/06/01 06:50:48;;;;;;;;;4.25;2.75;;;;;16.77;42.41;101001.25;5110639;27;71273;-59
2022/06/01 06:53:13;;;;;;;;;3.00;3.00;;;;;16.78;42.34;101001.19;5117188;27;56075;-60
2022/06/01 06:55:39;;;;;;;;;4.00;2.00;;;;;16.82;42.12;100991.31;5110856;27;57973;-59
2022/06/01 06:58:07;;;;;;;;;2.00;2.00;;;;;16.87;42.03;101002.56;5115940;27;45379;-59
2022/06/01 07:00:32;;;;;;;;;4.50;2.75;;;;;16.93;41.75;100998.75;5110720;27;45907;-59
2022/06/01 07:02:58;;;;;;;;;4.00;3.00;;;;;16.95;41.77;100995.13;5115088;27;61597;-59
2022/06/01 07:08:07;;;;;;;;;3.00;3.00;;;;;17.04;41.68;101007.88;5096518;27;45371;-59
2022/06/01 07:10:33;;;;;;;;;3.00;3.00;;;;;17.12;42.07;101011.91;5108301;27;45959;-60
2022/06/01 07:12:58;;;;;;;;;2.50;2.00;;;;;17.12;41.87;101002.19;5111356;27;64570;-60
2022/06/01 07:15:23;;;;;;;;;2.00;2.00;;;;;17.16;41.45;101009.06;5111062;27;68850;-60
2022/06/01 07:17:48;;;;;;;;;4.00;3.25;;;;;17.18;41.19;101012.47;5084600;27;47858;-60
2022/06/01 07:20:14;;;;;;;;;13.00;12.75;;;;;17.21;41.47;101007.03;5119822;27;65519;-61
2022/06/01 07:22:39;;;;;;;;;6.50;4.25;;;;;17.29;41.59;101016.38;5101548;27;45331;-60
2022/06/01 07:25:05;;;;;;;;;6.50;4.25;;;;;17.35;41.32;101005.47;5118633;27;52408;-60
2022/06/01 07:27:30;;;;;;;;;7.75;5.50;;;;;17.40;41.78;101006.94;5115178;27;45713;-61
2022/06/01 07:29:56;;;;;;;;;4.75;3.75;;;;;17.48;41.52;101006.56;5115809;27;45673;-60
2022/06/01 07:32:21;;;;;;;;;8.00;2.25;;;;;17.55;41.06;101012.41;5110086;27;63287;-60
2022/06/01 07:34:46;;;;;;;;;4.75;3.00;;;;;17.59;41.53;101006.84;5104998;27;64793;-60
2022/06/01 07:45:23;;;;;;;;;2.75;2.75;;;;;17.84;40.86;101017.00;5108746;27;45353;-60
2022/06/01 07:47:49;;;;;;;;;6.00;3.50;;;;;17.91;40.76;101012.28;5114388;27;45236;-60
2022/06/01 07:50:14;;;;;;;;;3.00;2.25;;;;;17.95;40.43;101018.25;5118543;27;66733;-60
2022/06/01 07:52:39;;;;;;;;;2.75;2.75;;;;;17.98;40.61;101018.94;5114530;27;45237;-60
2022/06/01 07:55:05;;;;;;;;;2.50;2.25;;;;;18.05;40.57;101014.19;5098627;27;68091;-60
2022/06/01 07:57:32;;;;;;;;;3.00;3.00;;;;;18.15;40.45;101019.81;5110066;27;45932;-60
2022/06/01 07:59:57;;;;;;;;;4.00;3.00;;;;;18.23;40.29;101014.97;5121805;27;45777;-60
2022/06/01 08:02:23;;;;;;;;;54.00;43.25;;;;;18.27;40.08;101016.50;5110193;27;51508;-60
2022/06/01 08:04:48;;;;;;;;;3.50;3.00;;;;;18.32;40.04;101016.28;5121728;27;45474;-60
2022/06/01 08:07:13;;;;;;;;;3.75;3.00;;;;;18.36;40.20;101009.84;5121118;27;70645;-60
2022/06/01 08:09:38;;;;;;;;;6.75;2.00;;;;;18.41;40.12;101007.81;5121001;27;55511;-60
2022/06/01 08:14:49;;;;;;;;;6.00;3.00;;;;;18.55;39.76;101023.78;5120567;27;45392;-60
2022/06/01 08:17:14;;;;;;;;;9.00;6.50;;;;;18.56;39.66;101017.56;5120293;27;46240;-60
2022/06/01 08:19:40;;;;;;;;;3.50;3.50;;;;;18.62;39.78;101013.69;5115764;27;53257;-60
2022/06/01 08:22:06;;;;;;;;;5.25;3.00;;;;;18.68;39.53;101016.03;5121662;27;45288;-60
2022/06/01 08:24:32;;;;;;;;;6.00;3.25;;;;;18.73;39.77;101016.63;5118689;27;45326;-60
2022/06/01 08:26:58;;;;;;;;;4.75;3.50;;;;;18.78;39.40;101008.38;5120831;27;46855;-62
2022/06/01 08:29:23;;;;;;;;;1.00;1.00;;;;;18.84;39.37;101012.50;5102297;27;45339;-60
2022/06/01 08:31:48;;;;;;;;;4.50;4.00;;;;;18.85;39.35;101006.28;5119872;27;60062;-61
2022/06/01 08:34:16;;;;;;;;;5.50;4.00;;;;;18.89;39.34;101010.44;5106864;27;63227;-60
2022/06/01 08:36:41;;;;;;;;;3.25;3.25;;;;;18.91;39.36;101008.56;5113341;27;46184;-61
2022/06/01 08:39:06;;;;;;;;;5.25;4.50;;;;;18.92;39.23;101008.47;5119590;27;45476;-60
2022/06/01 08:41:35;;;;;;;;;5.25;3.50;;;;;19.01;39.00;101009.75;5120396;27;58268;-60
2022/06/01 08:44:11;;;;;;;;;4.25;2.75;;;;;18.99;38.63;100995.72;5122968;27;45320;-60
2022/06/01 08:46:37;;;;;;;;;7.00;3.00;;;;;19.10;39.03;101001.25;5104658;27;45533;-60
2022/06/01 08:49:06;;;;;;;;;3.50;3.50;;;;;19.20;38.79;101004.22;5120084;27;45363;-60
2022/06/01 08:51:32;;;;;;;;;5.00;2.00;;;;;19.22;38.47;101010.28;5100091;27;45267;-60
2022/06/01 08:53:58;;;;;;;;;3.00;3.00;;;;;19.22;38.38;101012.09;5119730;27;48399;-61
2022/06/01 08:56:30;;;;;;;;;6.00;2.25;;;;;19.22;38.31;101015.59;5104220;27;46454;-61
2022/06/01 08:59:06;;;;;;;;;2.00;2.00;;;;;19.26;38.60;101006.50;5120538;27;45357;-60
2022/06/01 09:01:46;;;;;;;;;1.00;1.00;;;;;19.30;38.27;101010.72;5104310;27;45227;-60
2022/06/01 09:04:26;;;;;;;;;1.00;1.00;;;;;19.35;38.47;101015.72;5103065;27;45592;-59
2022/06/01 09:07:15;;;;;;;;;3.00;1.00;;;;;19.44;38.21;101009.00;5111760;27;45335;-59
2022/06/01 09:09:46;;;;;;;;;3.00;2.00;;;;;19.52;37.99;101004.94;5108971;27;45849;-60
2022/06/01 09:12:12;;;;;;;;;3.00;2.25;;;;;19.62;37.91;101012.34;5122760;27;45215;-59
2022/06/01 09:14:39;;;;;;;;;4.25;3.25;;;;;19.71;38.08;101014.47;5119527;27;45291;-60
2022/06/01 09:17:05;;;;;;;;;3.50;3.00;;;;;19.83;37.95;101010.22;5103975;27;46355;-60
2022/06/01 09:22:40;;;;;;;;;3.25;2.00;;;;;19.93;37.79;101022.00;5122531;27;45421;-60
2022/06/01 09:25:14;;;;;;;;;5.00;2.00;;;;;20.01;37.63;101017.06;5108628;27;45238;-60
2022/06/01 09:27:45;;;;;;;;;4.75;3.00;;;;;20.08;37.64;101018.41;5118284;27;46082;-60
2022/06/01 09:30:21;;;;;;;;;4.50;2.25;;;;;20.14;37.34;101021.63;5122229;27;45833;-60
2022/06/01 09:33:20;;;;;;;;;2.00;2.00;;;;;20.21;37.22;101018.47;5116855;27;45439;-60
2022/06/01 09:36:08;;;;;;;;;2.25;2.00;;;;;20.41;37.35;101022.50;5118549;27;45454;-60
2022/06/01 09:38:51;;;;;;;;;3.75;3.25;;;;;20.83;37.03;101015.41;5105165;27;46119;-60
2022/06/01 09:41:19;;;;;;;;;2.50;2.50;;;;;21.31;36.54;101030.03;5111026;27;45732;-60
2022/06/01 09:43:50;;;;;;;;;3.00;3.00;;;;;21.38;36.25;101018.00;5108841;27;45424;-60
2022/06/01 09:46:35;;;;;;;;;5.50;3.50;;;;;21.41;36.52;101023.97;5103299;27;45234;-60
2022/06/01 09:49:27;;;;;;;;;3.00;2.00;;;;;22.19;35.96;101028.34;5121611;27;46059;-60
2022/06/01 09:52:07;;;;;;;;;14.75;10.75;;;;;22.59;34.44;101019.31;5121239;27;45786;-59
2022/06/01 09:54:37;;;;;;;;;5.00;3.25;;;;;23.15;34.79;101016.09;5086465;27;45284;-60
2022/06/01 09:57:19;;;;;;;;;4.75;3.25;;;;;24.15;33.44;101005.72;5119039;27;45545;-60
2022/06/01 10:08:25;;;;;;;;;2.75;2.50;;;;;26.62;29.62;101003.59;5104976;27;45358;-60
2022/06/01 10:11:00;;;;;;;;;5.25;3.25;;;;;28.26;29.15;101002.56;5100644;27;45317;-60
2022/06/01 10:13:32;;;;;;;;;5.75;5.75;;;;;29.68;27.42;101016.19;5097448;27;45673;-60
2022/06/01 10:16:03;;;;;;;;;3.75;2.25;;;;;31.12;25.28;101001.81;5103545;27;45362;-59
2022/06/01 10:18:31;;;;;;;;;2.75;2.75;;;;;31.46;24.77;100998.88;5082050;27;45403;-60
2022/06/01 10:21:04;;;;;;;;;4.00;1.75;;;;;31.06;24.34;101000.63;5110895;27;47500;-59
2022/06/01 10:23:51;;;;;;;;;3.75;2.00;;;;;31.31;25.21;101000.63;5090011;27;46431;-58
2022/06/01 10:26:21;;;;;;;;;2.00;2.00;;;;;30.98;24.17;101006.03;5121493;27;45293;-60
2022/06/01 10:28:52;;;;;;;;;1.75;1.00;;;;;30.12;24.25;100999.91;5102882;27;45495;-59
2022/06/01 10:31:34;;;;;;;;;6.00;4.00;;;;;29.47;25.97;101005.78;5102424;27;45383;-59
2022/06/01 10:34:38;;;;;;;;;2.00;2.00;;;;;29.86;25.24;101000.78;5101756;27;45741;-59
2022/06/01 10:37:29;;;;;;;;;2.25;1.00;;;;;29.71;25.42;100995.13;5094676;27;45338;-59
2022/06/01 10:40:02;;;;;;;;;1.25;1.25;;;;;29.53;26.04;101000.59;5091676;27;45415;-59
2022/06/01 10:45:21;;;;;;;;;0.75;0.75;;;;;31.11;23.23;100994.69;5104491;27;45723;-59
2022/06/01 10:48:01;;;;;;;;;3.25;1.00;;;;;30.82;23.78;100996.88;5120367;27;52802;-59
2022/06/01 10:50:32;;;;;;;;;3.25;2.00;;;;;30.19;23.70;101000.94;5101466;27;45457;-59
2022/06/01 10:53:13;;;;;;;;;2.25;0.25;;;;;29.33;24.52;100999.94;5102122;27;46229;-59
2022/06/01 10:55:42;;;;;;;;;2.00;1.00;;;;;28.51;25.37;100987.56;5102929;27;45770;-59
2022/06/01 10:58:16;;;;;;;;;1.00;1.00;;;;;28.15;25.49;100995.56;5099074;27;46024;-59
2022/06/01 11:00:49;;;;;;;;;2.00;2.00;;;;;28.89;24.84;100986.44;5102644;27;45284;-59
2022/06/01 11:03:19;;;;;;;;;4.00;4.00;;;;;29.53;24.29;100986.25;5112239;27;47171;-58
2022/06/01 11:06:11;;;;;;;;;5.50;3.75;;;;;30.27;24.00;100986.63;5095573;27;45520;-59
2022/06/01 11:08:46;;;;;;;;;2.50;2.25;;;;;30.58;24.06;100980.63;5116863;27;45437;-58
2022/06/01 11:11:20;;;;;;;;;1.00;1.00;;;;;31.44;23.59;100973.88;5090478;27;45460;-59
2022/06/01 11:13:51;;;;;;;;;1.00;1.00;;;;;31.82;22.79;100970.56;5095704;27;45512;-59
2022/06/01 11:16:44;;;;;;;;;1.00;1.00;;;;;31.62;22.62;100970.97;5119044;27;45680;-58
2022/06/01 11:19:31;;;;;;;;;0.00;0.00;;;;;31.78;22.21;100973.66;5115589;27;45241;-59
2022/06/01 11:22:03;;;;;;;;;2.25;1.00;;;;;31.34;22.12;100968.66;5099293;27;45587;-58
2022/06/01 11:24:35;;;;;;;;;1.50;1.50;;;;;30.89;22.61;100961.06;5110946;27;46069;-59
2022/06/01 11:27:03;;;;;;;;;1.00;0.00;;;;;31.02;22.17;100965.00;5115827;27;45714;-58
2022/06/01 11:29:57;;;;;;;;;2.25;0.25;;;;;31.29;22.27;100956.66;5119409;27;45424;-59
2022/06/01 11:32:28;;;;;;;;;1.00;1.00;;;;;31.06;22.99;100970.91;5112362;27;45427;-58
2022/06/01 11:34:58;;;;;;;;;0.25;0.25;;;;;30.22;22.47;100959.25;5105332;27;46976;-59
2022/06/01 11:37:34;;;;;;;;;0.25;0.25;;;;;29.43;23.34;100964.81;5111625;27;45350;-58
2022/06/01 11:40:13;;;;;;;;;2.00;1.00;;;;;28.82;23.77;100958.41;5120017;27;45188;-59
2022/06/01 11:42:51;;;;;;;;;2.50;2.50;;;;;29.16;23.43;100960.38;5098463;27;45394;-58
2022/06/01 11:45:31;;;;;;;;;1.25;0.00;;;;;30.03;23.77;100961.25;5105059;27;46679;-58
2022/06/01 11:48:25;;;;;;;;;1.00;1.00;;;;;30.97;22.49;100953.84;5105607;27;45807;-59
2022/06/01 11:51:16;;;;;;;;;1.50;1.00;;;;;31.73;22.05;100953.50;5096105;27;45324;-59
2022/06/01 11:53:41;;;;;;;;;2.75;1.00;;;;;32.53;21.44;100950.56;5117150;27;45325;-59
2022/06/01 11:56:23;;;;;;;;;1.00;1.00;;;;;33.38;21.06;100940.53;5119155;27;46192;-58
2022/06/01 11:59:14;;;;;;;;;2.00;1.00;;;;;33.86;20.28;100943.72;5119929;27;45451;-59
2022/06/01 12:01:45;;;;;;;;;7.50;6.50;;;;;34.25;19.99;100941.69;5118503;27;45290;-59
2022/06/01 12:04:19;;;;;;;;;1.50;1.50;;;;;34.33;19.25;100944.28;5113932;27;45419;-59
2022/06/01 12:06:50;;;;;;;;;0.00;0.00;;;;;34.34;19.13;100947.84;5115740;27;45452;-59
2022/06/01 12:09:27;;;;;;;;;0.00;0.00;;;;;34.16;19.44;100949.09;5116247;27;45178;-59
2022/06/01 12:11:53;;;;;;;;;2.00;0.00;;;;;33.92;19.48;100944.00;5094364;27;45302;-59
2022/06/01 12:14:39;;;;;;;;;1.00;1.00;;;;;33.69;19.36;100946.84;5100363;27;45343;-59